Tuesday, August 30, 2016, 10:54 AM EDT

KNHK, Nas Patuxent River Md

Location: Patuxent River, MD, United States Lat: 38.3
Local Time: 10:54 AM EDT (14:54 GMT) Lon: -76.4
Time Zone: US/Eastern Elev: 39 ft

Show me the last for .
Show Decoded

2016-08-30 09:52 METAR KNHK 301352Z 03009KT 10SM CLR 26/19 A3013 RMK AO2 SLP204 T02610194 =
2016-08-30 08:52 METAR KNHK 301252Z 06007KT 10SM CLR 26/19 A3013 RMK AO2 SLP204 T02560189 =
2016-08-30 07:52 METAR KNHK 301152Z 04006KT 10SM FEW250 24/18 A3013 RMK AO2 SLP202 T02440183
                 10250 20228 53014 =
2016-08-30 06:52 METAR KNHK 301052Z 03008KT 10SM FEW250 24/18 A3011 RMK AO2 SLP196 T02390178 $ =
2016-08-30 05:52 METAR KNHK 300952Z 04007KT 10SM CLR 24/17 A3010 RMK AO2 SLP192 T02390172 $ =
2016-08-30 04:52 METAR KNHK 300852Z AUTO 04005KT 10SM CLR 24/18 A3009 RMK AO2 SLP189 T02390178
                 56001 PWINO $ =
2016-08-30 03:52 METAR KNHK 300752Z AUTO 03007KT 10SM CLR 24/18 A3009 RMK AO2 SLP188 T02440178
                 PWINO $ =
2016-08-30 02:52 METAR KNHK 300652Z AUTO 04006KT 10SM CLR 25/19 A3009 RMK AO2 SLP190 T02500189
                 PWINO $ =
2016-08-30 01:52 METAR KNHK 300552Z AUTO 35006KT 10SM CLR 25/22 A3009 RMK AO2 SLP190 T02500222
                 10267 20217 58001 PWINO $ =
2016-08-30 00:52 METAR KNHK 300452Z AUTO 29003KT 10SM CLR 22/20 A3009 RMK AO2 SLP190 T02170200
                 403170189 PWINO $ =
2016-08-29 23:52 METAR KNHK 300352Z AUTO 27003KT 10SM CLR 23/20 A3010 RMK AO2 SLP192 T02280200
                 PWINO $ =
2016-08-29 22:52 METAR KNHK 300252Z 00000KT 10SM CLR 23/20 A3010 RMK AO2 SLP191 T02280200 50004 $
                 =
2016-08-29 21:52 METAR KNHK 300152Z 00000KT 10SM CLR 24/20 A3010 RMK AO2 SLP193 T02390200 $ =
2016-08-29 20:52 METAR KNHK 300052Z 00000KT 10SM CLR 24/20 A3009 RMK AO2 SLP190 T02440200 $ =
2016-08-29 19:52 METAR KNHK 292352Z 18004KT 10SM FEW050 FEW180 SCT250 27/20 A3008 RMK AO2 SLP187
                 T02670200 10317 20267 53003 $ =
2016-08-29 18:52 METAR KNHK 292252Z 20007KT 10SM FEW180 FEW250 29/20 A3007 RMK AO2 SLP184
                 T02890200 $ =
2016-08-29 17:52 METAR KNHK 292152Z 00000KT 10SM FEW050 FEW180 SCT250 31/20 A3007 RMK AO2 SLP183
                 T03110200 $ =
2016-08-29 16:52 METAR KNHK 292052Z 04006KT 10SM FEW050 FEW170 SCT250 31/20 A3007 RMK AO2 SLP184
                 T03110200 58022 $ =
2016-08-29 15:52 METAR KNHK 291952Z 01006KT 10SM FEW050 FEW170 SCT250 31/18 A3010 RMK AO2 SLP191
                 T03110183 $ =
2016-08-29 14:52 METAR KNHK 291852Z 04009KT 10SM FEW050 FEW160 BKN250 31/17 A3012 RMK AO2 SLP199
                 T03110172 $ =
2016-08-29 13:52 METAR KNHK 291752Z 05006KT 10SM FEW050 FEW160 SCT250 31/17 A3014 RMK AO2 SLP206
                 T03060172 10311 20239 56012 $ =
2016-08-29 12:52 METAR KNHK 291652Z 03005KT 10SM FEW040 FEW150 SCT250 31/16 A3014 RMK AO2 SLP207
                 T03060161 $ =
2016-08-29 11:52 METAR KNHK 291552Z 35003KT 10SM FEW040 FEW150 BKN250 29/16 A3016 RMK AO2 SLP213
                 T02940156 $ =

Support USWX by starting your Amazon purchase here.